createdAt,value
2019-03-09T00:00:54.747Z,2.20
2019-03-09T00:01:54.605Z,2.00
2019-03-09T00:02:54.594Z,2.40
2019-03-09T00:03:54.867Z,2.30
2019-03-09T00:04:54.573Z,2.40
2019-03-09T00:05:54.566Z,2.20
2019-03-09T00:06:54.695Z,1.90
2019-03-09T00:07:54.542Z,2.20
2019-03-09T00:08:54.529Z,2.10
2019-03-09T00:09:54.536Z,2.00
2019-03-09T00:10:54.508Z,1.70
2019-03-09T00:11:54.497Z,2.10
2019-03-09T00:12:54.624Z,2.30
2019-03-09T00:13:54.477Z,2.10
2019-03-09T00:14:54.466Z,2.10
2019-03-09T00:15:54.458Z,2.00
2019-03-09T00:16:54.753Z,2.10
2019-03-09T00:17:54.439Z,2.30
2019-03-09T00:18:54.552Z,1.90
2019-03-09T00:19:54.414Z,2.30
2019-03-09T00:20:54.402Z,1.90
2019-03-09T00:21:54.392Z,2.00
2019-03-09T00:22:54.381Z,1.80
2019-03-09T00:23:54.385Z,1.60
2019-03-09T00:24:54.493Z,1.80
2019-03-09T00:25:54.351Z,2.40
2019-03-09T00:26:54.344Z,1.80
2019-03-09T00:27:54.329Z,1.40
2019-03-09T00:28:54.609Z,2.20
2019-03-09T00:29:54.309Z,2.10
2019-03-09T00:30:54.694Z,1.70
2019-03-09T00:31:54.295Z,1.70
2019-03-09T00:32:54.281Z,1.80
2019-03-09T00:33:54.269Z,1.80
2019-03-09T00:34:54.255Z,2.00
2019-03-09T00:35:54.246Z,1.80
2019-03-09T00:36:54.617Z,2.00
2019-03-09T00:37:54.233Z,2.30
2019-03-09T00:38:54.214Z,2.20
2019-03-09T00:39:54.209Z,2.20
2019-03-09T00:40:54.196Z,2.00
2019-03-09T00:41:54.183Z,1.90
2019-03-09T00:42:54.311Z,2.10
2019-03-09T00:43:54.166Z,1.90
2019-03-09T00:44:54.157Z,1.70
2019-03-09T00:45:54.144Z,2.10
2019-03-09T00:46:54.426Z,1.60
2019-03-09T00:47:54.122Z,1.90
2019-03-09T00:48:54.264Z,2.30
2019-03-09T00:49:54.157Z,2.00
2019-03-09T00:50:54.180Z,2.00
2019-03-09T00:51:54.083Z,1.60
2019-03-09T00:52:54.071Z,2.10
2019-03-09T00:53:54.366Z,1.90
2019-03-09T00:54:54.976Z,1.80
2019-03-09T00:55:54.687Z,1.60
2019-03-09T00:56:54.026Z,1.70
2019-03-09T00:57:54.022Z,2.00
2019-03-09T00:58:54.006Z,1.60
2019-03-09T00:59:53.995Z,2.40
2019-03-09T01:00:54.411Z,1.90
2019-03-09T01:01:53.975Z,2.00
2019-03-09T01:02:53.965Z,2.00
2019-03-09T01:03:53.956Z,1.60
2019-03-09T01:04:53.943Z,1.70
2019-03-09T01:05:53.954Z,1.80
2019-03-09T01:06:54.163Z,1.50
2019-03-09T01:07:54.424Z,2.10
2019-03-09T01:08:53.963Z,2.20
2019-03-09T01:09:53.951Z,2.40
2019-03-09T01:10:53.881Z,2.20
2019-03-09T01:11:53.873Z,2.20
2019-03-09T01:12:53.983Z,2.10
2019-03-09T01:13:53.848Z,1.90
2019-03-09T01:14:54.126Z,1.50
2019-03-09T01:15:53.828Z,2.10
2019-03-09T01:16:53.817Z,1.90
2019-03-09T01:17:53.812Z,2.00
2019-03-09T01:18:53.918Z,1.90
2019-03-09T01:19:53.787Z,2.30
2019-03-09T01:20:53.783Z,1.80
2019-03-09T01:21:54.072Z,1.70
2019-03-09T01:22:53.756Z,1.90
2019-03-09T01:23:53.750Z,2.00
2019-03-09T01:24:53.880Z,2.00
2019-03-09T01:25:53.726Z,1.60
2019-03-09T01:26:53.715Z,2.10
2019-03-09T01:27:53.702Z,1.80
2019-03-09T01:28:53.978Z,2.50
2019-03-09T01:29:53.682Z,2.30
2019-03-09T01:30:53.729Z,1.80
2019-03-09T01:31:53.677Z,2.00
2019-03-09T01:32:53.649Z,2.10
2019-03-09T01:33:53.640Z,2.00
2019-03-09T01:34:53.629Z,2.00
2019-03-09T01:35:53.912Z,2.10
2019-03-09T01:36:53.667Z,1.90
2019-03-09T01:37:53.600Z,2.00
2019-03-09T01:38:53.589Z,2.20
2019-03-09T01:39:53.579Z,2.10
2019-03-09T01:40:53.572Z,2.00
2019-03-09T01:41:53.560Z,1.50
2019-03-09T01:42:54.065Z,1.90
2019-03-09T01:43:53.540Z,1.80
2019-03-09T01:44:53.525Z,1.80
2019-03-09T01:45:53.518Z,1.70
2019-03-09T01:46:53.513Z,1.70
2019-03-09T01:47:53.498Z,2.00
2019-03-09T01:48:53.542Z,2.10
2019-03-09T01:49:53.769Z,2.20
2019-03-09T01:50:53.466Z,2.30
2019-03-09T01:51:53.452Z,1.50
2019-03-09T01:52:53.443Z,1.90
2019-03-09T01:53:53.439Z,1.70
2019-03-09T01:54:53.477Z,2.00
2019-03-09T01:55:53.409Z,1.50
2019-03-09T01:56:53.695Z,2.40
2019-03-09T01:57:53.396Z,2.10
2019-03-09T01:58:53.398Z,2.00
2019-03-09T01:59:53.370Z,2.00
2019-03-09T02:00:53.516Z,2.40
2019-03-09T02:01:53.352Z,1.80
2019-03-09T02:02:53.340Z,2.30
2019-03-09T02:03:53.744Z,1.90
2019-03-09T02:04:53.355Z,1.90
2019-03-09T02:05:53.467Z,2.00
2019-03-09T02:06:53.450Z,1.60
2019-03-09T02:07:53.286Z,2.00
2019-03-09T02:08:53.284Z,2.00
2019-03-09T02:09:53.265Z,1.80
2019-03-09T02:10:53.253Z,1.60
2019-03-09T02:11:53.243Z,1.60
2019-03-09T02:12:53.280Z,2.20
2019-03-09T02:13:53.225Z,1.80
2019-03-09T02:14:53.218Z,1.70
2019-03-09T02:15:53.211Z,1.50
2019-03-09T02:16:53.477Z,2.20
2019-03-09T02:17:53.196Z,2.00
2019-03-09T02:18:53.254Z,1.80
2019-03-09T02:19:53.161Z,1.50
2019-03-09T02:20:53.149Z,1.70
2019-03-09T02:21:53.147Z,1.80
2019-03-09T02:22:53.131Z,2.20
2019-03-09T02:23:53.401Z,2.20
2019-03-09T02:24:53.159Z,1.90
2019-03-09T02:25:53.099Z,2.30
2019-03-09T02:26:53.091Z,2.00
2019-03-09T02:27:53.078Z,2.90
2019-03-09T02:28:53.067Z,2.30
2019-03-09T02:29:53.059Z,1.80
2019-03-09T02:30:53.094Z,2.00
2019-03-09T02:31:53.034Z,2.00
2019-03-09T02:32:53.024Z,2.10
2019-03-09T02:33:53.013Z,2.10
2019-03-09T02:34:53.002Z,1.90
2019-03-09T02:35:53.289Z,2.00
2019-03-09T02:36:53.071Z,2.00
2019-03-09T02:37:52.995Z,2.40
2019-03-09T02:38:52.961Z,1.50
2019-03-09T02:39:52.952Z,1.70
2019-03-09T02:40:52.941Z,1.80
2019-03-09T02:41:52.931Z,1.80
2019-03-09T02:42:52.966Z,1.80
2019-03-09T02:43:52.909Z,1.60
2019-03-09T02:44:52.898Z,1.50
2019-03-09T02:45:52.891Z,2.00
2019-03-09T02:46:52.876Z,1.50
2019-03-09T02:47:53.152Z,1.80
2019-03-09T02:48:52.908Z,2.00
2019-03-09T02:49:52.844Z,2.00
2019-03-09T02:50:52.835Z,1.70
2019-03-09T02:51:52.829Z,1.60
2019-03-09T02:52:52.825Z,1.70
2019-03-09T02:53:52.808Z,1.50
2019-03-09T02:54:53.175Z,1.40
2019-03-09T02:55:52.782Z,1.70
2019-03-09T02:56:52.770Z,1.70
2019-03-09T02:57:52.764Z,1.70
2019-03-09T02:58:52.750Z,1.60
2019-03-09T02:59:52.740Z,1.70
2019-03-09T03:02:25.741Z,2.00
2019-03-09T03:03:25.387Z,1.70
2019-03-09T03:04:25.380Z,1.70
2019-03-09T03:05:25.368Z,2.10
2019-03-09T03:06:25.363Z,1.90
2019-03-09T03:07:25.356Z,1.60
2019-03-09T03:08:25.379Z,1.80
2019-03-09T03:09:25.617Z,1.60
2019-03-09T03:10:25.318Z,1.80
2019-03-09T03:11:25.304Z,2.00
2019-03-09T03:12:25.292Z,1.60
2019-03-09T03:13:25.285Z,1.60
2019-03-09T03:14:25.373Z,1.60
2019-03-09T03:15:25.282Z,1.50
2019-03-09T03:16:25.534Z,1.60
2019-03-09T03:17:25.240Z,1.30
2019-03-09T03:18:25.239Z,1.50
2019-03-09T03:19:25.222Z,1.30
2019-03-09T03:20:25.261Z,2.10
2019-03-09T03:21:25.196Z,1.70
2019-03-09T03:22:25.187Z,1.60
2019-03-09T03:23:25.529Z,1.90
2019-03-09T03:24:25.167Z,2.00
2019-03-09T03:25:25.172Z,1.60
2019-03-09T03:26:25.192Z,1.50
2019-03-09T03:27:25.133Z,1.70
2019-03-09T03:28:25.139Z,1.70
2019-03-09T03:29:25.115Z,2.00
2019-03-09T03:30:25.416Z,1.80
2019-03-09T03:31:25.090Z,1.40
2019-03-09T03:32:25.506Z,1.70
2019-03-09T03:33:25.079Z,1.70
2019-03-09T03:34:25.062Z,1.70
2019-03-09T03:35:25.046Z,1.90
2019-03-09T03:36:25.043Z,1.60
2019-03-09T03:37:25.329Z,1.90
2019-03-09T03:38:25.093Z,1.70
2019-03-09T03:39:25.008Z,1.40
2019-03-09T03:40:24.999Z,1.90
2019-03-09T03:41:24.983Z,1.70
2019-03-09T03:42:24.973Z,1.60
2019-03-09T03:43:25.642Z,1.90
2019-03-09T03:44:25.284Z,1.60
2019-03-09T03:45:25.647Z,1.50
2019-03-09T03:46:24.934Z,1.50
2019-03-09T03:47:25.653Z,1.50
2019-03-09T03:48:24.945Z,1.40
2019-03-09T03:49:24.900Z,1.40
2019-03-09T03:50:24.969Z,1.40
2019-03-09T03:51:25.172Z,1.60
2019-03-09T03:52:24.881Z,1.70
2019-03-09T03:53:24.868Z,1.80
2019-03-09T03:54:24.877Z,1.90
2019-03-09T03:55:24.838Z,1.80
2019-03-09T03:56:24.914Z,1.50
2019-03-09T03:57:24.827Z,1.50
2019-03-09T03:58:25.097Z,1.60
2019-03-09T03:59:24.793Z,1.80
2019-03-09T04:00:24.801Z,1.50
2019-03-09T04:01:24.774Z,1.50
2019-03-09T04:02:24.807Z,1.60
2019-03-09T04:03:24.749Z,1.40
2019-03-09T04:04:24.743Z,1.50
2019-03-09T04:05:25.009Z,1.20
2019-03-09T04:06:24.716Z,1.50
2019-03-09T04:07:24.756Z,1.40
2019-03-09T04:08:25.091Z,1.10
2019-03-09T04:09:24.696Z,1.50
2019-03-09T04:10:24.674Z,1.20
2019-03-09T04:11:24.663Z,1.20
2019-03-09T04:12:24.939Z,1.60
2019-03-09T04:13:24.641Z,1.50
2019-03-09T04:14:24.684Z,1.60
2019-03-09T04:15:24.621Z,1.40
2019-03-09T04:16:24.611Z,1.40
2019-03-09T04:17:24.602Z,1.60
2019-03-09T04:18:24.592Z,1.40
2019-03-09T04:19:24.863Z,1.10
2019-03-09T04:20:24.614Z,1.50
2019-03-09T04:21:24.556Z,1.30
2019-03-09T04:22:24.546Z,1.10
2019-03-09T04:23:24.535Z,1.30
2019-03-09T04:24:24.524Z,1.10
2019-03-09T04:25:24.516Z,1.50
2019-03-09T04:26:24.863Z,1.40
2019-03-09T04:27:24.503Z,1.30
2019-03-09T04:28:24.490Z,1.30
2019-03-09T04:29:24.472Z,1.00
2019-03-09T04:30:24.462Z,1.30
2019-03-09T04:31:24.450Z,1.20
2019-03-09T04:32:24.778Z,1.40
2019-03-09T04:33:24.429Z,1.10
2019-03-09T04:34:24.423Z,1.30
2019-03-09T04:35:24.419Z,1.10
2019-03-09T04:36:24.397Z,1.10
2019-03-09T04:37:24.391Z,1.30
2019-03-09T04:38:24.711Z,1.40
2019-03-09T04:39:24.368Z,1.10
2019-03-09T04:40:24.357Z,1.30
2019-03-09T04:41:24.347Z,1.30
2019-03-09T04:42:24.334Z,1.60
2019-03-09T04:43:24.330Z,1.50
2019-03-09T04:44:24.671Z,1.50
2019-03-09T04:45:24.311Z,1.20
2019-03-09T04:46:24.293Z,1.30
2019-03-09T04:47:24.284Z,1.50
2019-03-09T04:48:24.270Z,1.30
2019-03-09T04:49:24.259Z,1.20
2019-03-09T04:50:24.297Z,1.50
2019-03-09T04:51:24.237Z,1.50
2019-03-09T04:52:24.232Z,1.40
2019-03-09T04:53:24.217Z,1.50
2019-03-09T04:54:24.208Z,1.70
2019-03-09T04:55:24.199Z,1.50
2019-03-09T04:56:24.540Z,1.40
2019-03-09T04:57:24.176Z,1.60
2019-03-09T04:58:24.164Z,1.70
2019-03-09T04:59:24.163Z,1.60
2019-03-09T05:00:24.143Z,1.70
2019-03-09T05:01:24.134Z,1.70
2019-03-09T05:02:24.488Z,1.50
2019-03-09T05:03:24.111Z,1.40
2019-03-09T05:04:24.102Z,1.60
2019-03-09T05:05:24.090Z,1.60
2019-03-09T05:06:24.084Z,1.60
2019-03-09T05:07:24.071Z,1.50
2019-03-09T05:08:24.113Z,1.40
2019-03-09T05:09:24.337Z,1.20
2019-03-09T05:10:24.049Z,1.40
2019-03-09T05:11:24.029Z,1.40
2019-03-09T05:12:24.016Z,1.60
2019-03-09T05:13:24.020Z,1.90
2019-03-09T05:14:24.047Z,1.30
2019-03-09T05:15:23.985Z,1.40
2019-03-09T05:16:24.285Z,1.40
2019-03-09T05:17:23.969Z,1.60
2019-03-09T05:18:23.952Z,1.00
2019-03-09T05:19:23.946Z,1.20
2019-03-09T05:20:24.354Z,1.30
2019-03-09T05:21:23.926Z,1.70
2019-03-09T05:22:23.910Z,1.70
2019-03-09T05:23:24.205Z,1.50
2019-03-09T05:24:23.899Z,1.70
2019-03-09T05:25:23.879Z,1.90
2019-03-09T05:26:23.916Z,1.60
2019-03-09T05:27:23.863Z,2.10
2019-03-09T05:28:23.846Z,1.80
2019-03-09T05:29:23.842Z,2.20
2019-03-09T05:30:24.121Z,2.10
2019-03-09T05:31:23.824Z,2.40
2019-03-09T05:32:23.852Z,1.40
2019-03-09T05:33:23.795Z,2.30
2019-03-09T05:34:23.783Z,1.70
2019-03-09T05:35:23.773Z,3.10
2019-03-09T05:36:23.762Z,2.80
2019-03-09T05:37:24.035Z,2.80
2019-03-09T05:38:24.052Z,3.40
2019-03-09T05:39:23.729Z,3.50
2019-03-09T05:40:23.721Z,3.50
2019-03-09T05:41:23.711Z,2.70
2019-03-09T05:42:23.697Z,2.80
2019-03-09T05:43:23.686Z,2.00
2019-03-09T05:44:24.168Z,1.70
2019-03-09T05:45:23.668Z,3.20
2019-03-09T05:46:23.655Z,3.00
2019-03-09T05:47:23.646Z,2.70
2019-03-09T05:48:23.646Z,1.80
2019-03-09T05:49:23.624Z,1.70
2019-03-09T05:50:23.672Z,1.50
2019-03-09T05:51:24.080Z,1.30
2019-03-09T05:52:23.627Z,1.00
2019-03-09T05:53:23.580Z,1.30
2019-03-09T05:54:23.572Z,1.30
2019-03-09T05:55:23.560Z,1.30
2019-03-09T05:56:23.779Z,1.30
2019-03-09T05:57:23.538Z,1.10
2019-03-09T05:58:24.029Z,1.30
2019-03-09T05:59:23.516Z,1.50
2019-03-09T06:00:23.507Z,1.50
2019-03-09T06:01:23.497Z,1.40
2019-03-09T06:02:23.584Z,1.30
2019-03-09T06:03:23.475Z,2.10
2019-03-09T06:04:23.464Z,1.40
2019-03-09T06:05:23.833Z,1.50
2019-03-09T06:06:23.455Z,1.70
2019-03-09T06:07:23.438Z,2.50
2019-03-09T06:08:23.471Z,2.20
2019-03-09T06:09:23.409Z,2.30
2019-03-09T06:10:23.406Z,2.30
2019-03-09T06:11:23.389Z,1.90
2019-03-09T06:12:23.824Z,2.40
2019-03-09T06:13:23.372Z,2.30
2019-03-09T06:14:23.447Z,2.00
2019-03-09T06:15:23.354Z,2.70
2019-03-09T06:16:23.337Z,2.10
2019-03-09T06:17:23.326Z,2.20
2019-03-09T06:18:23.317Z,2.20
2019-03-09T06:19:23.778Z,2.50
2019-03-09T06:20:23.342Z,1.90
2019-03-09T06:21:23.284Z,2.50
2019-03-09T06:22:23.271Z,2.90
2019-03-09T06:23:23.261Z,3.00
2019-03-09T06:24:23.266Z,2.70
2019-03-09T06:25:23.356Z,2.80
2019-03-09T06:26:23.720Z,2.50
2019-03-09T06:27:23.227Z,2.60
2019-03-09T06:28:23.222Z,3.20
2019-03-09T06:29:23.245Z,2.80
2019-03-09T06:30:23.188Z,2.60
2019-03-09T06:31:23.177Z,2.60
2019-03-09T06:32:23.563Z,2.50
2019-03-09T06:33:23.158Z,2.60
2019-03-09T06:34:23.143Z,2.10
2019-03-09T06:35:23.134Z,2.50
2019-03-09T06:36:23.121Z,2.30
2019-03-09T06:37:23.111Z,2.20
2019-03-09T06:38:23.489Z,2.50
2019-03-09T06:39:23.088Z,2.00
2019-03-09T06:40:23.115Z,2.20
2019-03-09T06:41:23.076Z,2.20
2019-03-09T06:42:23.067Z,2.50
2019-03-09T06:43:23.071Z,2.60
2019-03-09T06:44:23.090Z,2.60
2019-03-09T06:45:23.024Z,2.70
2019-03-09T06:46:23.014Z,2.50
2019-03-09T06:47:23.025Z,2.30
2019-03-09T06:48:22.993Z,2.70
2019-03-09T06:49:22.984Z,3.00
2019-03-09T06:50:24.263Z,2.20
2019-03-09T06:51:22.964Z,2.40
2019-03-09T06:52:22.951Z,2.50
2019-03-09T06:53:22.941Z,2.70
2019-03-09T06:54:22.931Z,2.40
2019-03-09T06:55:22.919Z,2.40
2019-03-09T06:56:22.955Z,2.50
2019-03-09T06:57:23.186Z,3.00
2019-03-09T06:58:22.886Z,2.50
2019-03-09T06:59:22.883Z,2.40
2019-03-09T07:00:22.873Z,2.50
2019-03-09T07:01:22.856Z,2.70
2019-03-09T07:02:22.879Z,3.10
2019-03-09T07:03:22.840Z,2.90
2019-03-09T07:04:23.283Z,2.50
2019-03-09T07:05:22.811Z,2.90
2019-03-09T07:06:22.800Z,2.40
2019-03-09T07:07:22.790Z,3.80
2019-03-09T07:08:22.841Z,2.70
2019-03-09T07:09:22.771Z,2.70
2019-03-09T07:10:22.760Z,1.90
2019-03-09T07:11:24.250Z,2.60
2019-03-09T07:12:22.738Z,2.60
2019-03-09T07:13:22.727Z,2.80
2019-03-09T07:14:22.757Z,2.70
2019-03-09T07:15:22.707Z,2.90
2019-03-09T07:16:22.695Z,3.10
2019-03-09T07:17:22.706Z,2.40
2019-03-09T07:18:23.026Z,2.70
2019-03-09T07:19:22.668Z,2.50
2019-03-09T07:20:22.704Z,2.70
2019-03-09T07:21:22.644Z,3.30
2019-03-09T07:22:22.641Z,2.90
2019-03-09T07:23:22.622Z,2.60
2019-03-09T07:24:22.615Z,2.70
2019-03-09T07:25:22.944Z,3.10
2019-03-09T07:26:22.655Z,3.10
2019-03-09T07:27:22.590Z,3.20
2019-03-09T07:28:22.585Z,2.60
2019-03-09T07:29:22.563Z,2.40
2019-03-09T07:30:22.560Z,3.10
2019-03-09T07:31:22.554Z,2.50
2019-03-09T07:32:22.567Z,3.10
2019-03-09T07:33:22.535Z,2.60
2019-03-09T07:34:22.511Z,3.20
2019-03-09T07:35:22.496Z,3.40
2019-03-09T07:36:22.487Z,2.10
2019-03-09T07:37:22.480Z,2.30
2019-03-09T07:38:22.808Z,2.40
2019-03-09T07:39:22.455Z,3.20
2019-03-09T07:40:22.449Z,3.10
2019-03-09T07:41:22.435Z,3.30
2019-03-09T07:42:22.435Z,3.40
2019-03-09T07:43:22.433Z,2.90
2019-03-09T07:44:22.463Z,2.80
2019-03-09T07:45:22.393Z,3.70
2019-03-09T07:46:22.451Z,2.90
2019-03-09T07:47:22.370Z,2.90
2019-03-09T07:48:22.363Z,2.70
2019-03-09T07:49:22.354Z,2.90
2019-03-09T07:50:22.374Z,2.30
2019-03-09T07:51:22.795Z,3.10
2019-03-09T07:52:22.328Z,2.50
2019-03-09T07:53:22.306Z,2.70
2019-03-09T07:54:22.298Z,3.80
2019-03-09T07:55:23.129Z,3.00
2019-03-09T07:56:22.310Z,2.90
2019-03-09T07:57:22.285Z,2.90
2019-03-09T07:58:22.590Z,2.80
2019-03-09T07:59:22.243Z,3.30
2019-03-09T08:00:22.233Z,3.20
2019-03-09T08:01:23.959Z,3.50
2019-03-09T08:02:22.257Z,2.60
2019-03-09T08:03:22.207Z,3.20
2019-03-09T08:04:22.193Z,3.80
2019-03-09T08:05:22.488Z,2.90
2019-03-09T08:06:22.170Z,3.70
2019-03-09T08:07:22.167Z,3.30
2019-03-09T08:08:22.188Z,3.60
2019-03-09T08:09:29.097Z,2.50
2019-03-09T08:10:23.107Z,2.60
2019-03-09T08:11:23.128Z,2.00
2019-03-09T08:12:24.058Z,3.10
2019-03-09T08:13:22.097Z,2.30
2019-03-09T08:14:22.123Z,2.70
2019-03-09T08:15:22.079Z,2.70
2019-03-09T08:16:22.065Z,3.60
2019-03-09T08:17:24.618Z,2.80
2019-03-09T08:18:22.065Z,2.80
2019-03-09T08:19:22.038Z,3.20
2019-03-09T08:20:22.207Z,2.80
2019-03-09T08:21:22.031Z,2.70
2019-03-09T08:22:22.078Z,3.30
2019-03-09T08:23:22.043Z,2.70
2019-03-09T08:24:21.988Z,2.40
2019-03-09T08:25:22.627Z,2.70
2019-03-09T08:26:22.018Z,2.40
2019-03-09T08:27:22.603Z,1.50
2019-03-09T08:28:22.015Z,1.70
2019-03-09T08:29:21.929Z,1.50
2019-03-09T08:30:22.254Z,1.20
2019-03-09T08:31:21.908Z,2.80
2019-03-09T08:32:21.951Z,3.00
2019-03-09T08:33:21.905Z,2.10
2019-03-09T08:34:21.882Z,2.60
2019-03-09T08:35:21.872Z,2.60
2019-03-09T08:36:21.867Z,2.20
2019-03-09T08:37:21.884Z,2.30
2019-03-09T08:38:22.150Z,2.60
2019-03-09T08:39:21.842Z,1.40
2019-03-09T08:40:22.111Z,2.00
2019-03-09T08:41:21.817Z,1.80
2019-03-09T08:42:22.186Z,2.50
2019-03-09T08:43:21.785Z,2.90
2019-03-09T08:44:21.812Z,2.20
2019-03-09T08:45:21.776Z,2.00
2019-03-09T08:46:21.761Z,2.70
2019-03-09T08:47:22.206Z,3.20
2019-03-09T08:48:22.241Z,2.30
2019-03-09T08:49:22.222Z,2.50
2019-03-09T08:50:21.740Z,2.50
2019-03-09T08:51:21.735Z,2.10
2019-03-09T08:52:21.680Z,1.80
2019-03-09T08:53:21.698Z,1.70
2019-03-09T08:54:21.666Z,1.70
2019-03-09T08:55:21.671Z,2.20
2019-03-09T08:56:21.690Z,2.20
2019-03-09T08:57:21.658Z,3.10
2019-03-09T08:58:21.663Z,2.40
2019-03-09T08:59:21.655Z,3.30
2019-03-09T09:00:21.613Z,2.70
2019-03-09T09:01:21.600Z,2.50
2019-03-09T09:02:21.988Z,2.40
2019-03-09T09:03:21.560Z,2.90
2019-03-09T09:04:21.720Z,2.70
2019-03-09T09:05:21.734Z,2.70
2019-03-09T09:06:22.551Z,2.80
2019-03-09T09:07:21.743Z,2.50
2019-03-09T09:08:22.123Z,3.20
2019-03-09T09:09:21.750Z,2.80
2019-03-09T09:10:21.885Z,2.60
2019-03-09T09:11:21.603Z,3.00
2019-03-09T09:12:21.509Z,2.70
2019-03-09T09:13:21.457Z,3.30
2019-03-09T09:14:22.206Z,3.30
2019-03-09T09:15:21.482Z,3.30
2019-03-09T09:16:21.428Z,2.80
2019-03-09T09:17:21.606Z,3.60
2019-03-09T09:18:21.479Z,3.50
2019-03-09T09:19:21.422Z,3.00
2019-03-09T09:20:21.758Z,2.80
2019-03-09T09:21:21.365Z,3.20
2019-03-09T09:22:21.369Z,3.40
2019-03-09T09:23:21.396Z,3.90
2019-03-09T09:24:21.361Z,3.60
2019-03-09T09:25:24.105Z,3.00
2019-03-09T09:26:22.324Z,3.40
2019-03-09T09:27:21.687Z,3.80
2019-03-09T09:28:21.326Z,4.10
2019-03-09T09:29:21.362Z,3.10
2019-03-09T09:30:21.781Z,3.80
2019-03-09T09:31:21.330Z,3.20
2019-03-09T09:32:21.493Z,4.00
2019-03-09T09:33:21.358Z,3.40
2019-03-09T09:34:21.525Z,4.10
2019-03-09T09:35:21.284Z,3.50
2019-03-09T09:36:21.482Z,3.70
2019-03-09T09:37:21.272Z,3.60
2019-03-09T09:38:21.792Z,3.20
2019-03-09T09:39:22.310Z,3.60
2019-03-09T09:40:21.161Z,3.40
2019-03-09T09:41:21.240Z,2.30
2019-03-09T09:42:21.272Z,3.30
2019-03-09T09:43:21.201Z,2.70
2019-03-09T09:44:22.208Z,4.00
2019-03-09T09:45:22.117Z,3.40
2019-03-09T09:46:21.156Z,4.30
2019-03-09T09:47:21.182Z,4.50
2019-03-09T09:48:21.075Z,4.40
2019-03-09T09:49:21.132Z,4.30
2019-03-09T09:50:21.471Z,4.00
2019-03-09T09:51:21.418Z,3.80
2019-03-09T09:52:21.028Z,4.00
2019-03-09T09:53:23.343Z,4.20
2019-03-09T09:54:21.014Z,4.70
2019-03-09T09:55:21.002Z,3.80
2019-03-09T09:56:21.025Z,4.10
2019-03-09T09:57:21.649Z,3.40
2019-03-09T09:58:21.169Z,4.50
2019-03-09T09:59:20.987Z,3.20
2019-03-09T10:00:21.291Z,3.40
2019-03-09T10:01:23.184Z,3.90
2019-03-09T10:02:21.758Z,3.30
2019-03-09T10:03:20.998Z,3.60
2019-03-09T10:04:21.350Z,3.30
2019-03-09T10:05:21.676Z,4.90
2019-03-09T10:06:21.597Z,3.70
2019-03-09T10:07:21.262Z,4.30
2019-03-09T10:08:21.062Z,4.40
2019-03-09T10:09:21.019Z,4.70
2019-03-09T10:10:20.934Z,4.60
2019-03-09T10:11:21.718Z,4.50
2019-03-09T10:12:20.810Z,3.90
2019-03-09T10:13:20.971Z,3.90
2019-03-09T10:14:20.834Z,5.50
2019-03-09T10:15:20.817Z,5.20
2019-03-09T10:16:20.837Z,4.00
2019-03-09T10:17:21.217Z,4.10
2019-03-09T10:18:20.822Z,4.00
2019-03-09T10:19:20.793Z,3.30
2019-03-09T10:20:21.405Z,4.20
2019-03-09T10:21:21.217Z,4.10
2019-03-09T10:22:20.794Z,4.50
2019-03-09T10:23:21.492Z,4.60
2019-03-09T10:24:20.845Z,2.60
2019-03-09T10:25:21.598Z,4.90
2019-03-09T10:26:23.990Z,4.60
2019-03-09T10:27:21.688Z,5.10
2019-03-09T10:28:20.729Z,4.50
2019-03-09T10:29:21.282Z,4.60
2019-03-09T10:30:20.889Z,5.70
2019-03-09T10:31:21.543Z,4.20
2019-03-09T10:32:21.183Z,5.50
2019-03-09T10:33:24.087Z,4.60
2019-03-09T10:34:21.877Z,2.80
2019-03-09T10:35:22.800Z,2.90
2019-03-09T10:36:22.720Z,4.60
2019-03-09T10:37:24.731Z,4.50
2019-03-09T10:38:20.972Z,4.30
2019-03-09T10:39:20.535Z,3.70
2019-03-09T10:40:20.541Z,3.70
2019-03-09T10:41:20.527Z,4.00
2019-03-09T10:42:20.913Z,4.40
2019-03-09T10:43:20.819Z,4.80
2019-03-09T10:44:20.640Z,5.30
2019-03-09T10:45:20.886Z,4.60
2019-03-09T10:46:20.659Z,5.00
2019-03-09T10:47:20.851Z,5.50
2019-03-09T10:48:20.702Z,5.10
2019-03-09T10:49:20.790Z,4.60
2019-03-09T10:50:20.407Z,4.50
2019-03-09T10:51:20.451Z,4.50
2019-03-09T10:52:21.081Z,3.30
2019-03-09T10:53:21.398Z,4.30
2019-03-09T10:54:20.486Z,4.50
2019-03-09T10:55:20.570Z,5.60
2019-03-09T10:56:20.413Z,2.60
2019-03-09T10:57:20.419Z,3.20
2019-03-09T10:58:21.575Z,4.20
2019-03-09T10:59:21.150Z,3.90
2019-03-09T11:00:20.789Z,4.20
2019-03-09T11:01:20.384Z,5.00
2019-03-09T11:02:21.361Z,3.50
2019-03-09T11:03:20.524Z,4.30
2019-03-09T11:04:27.603Z,4.20
2019-03-09T11:05:21.299Z,2.80
2019-03-09T11:06:20.286Z,3.60
2019-03-09T11:07:21.560Z,3.80
2019-03-09T11:08:20.443Z,4.20
2019-03-09T11:09:20.408Z,5.00
2019-03-09T11:10:20.570Z,4.40
2019-03-09T11:11:20.188Z,5.00
2019-03-09T11:12:20.184Z,4.50
2019-03-09T11:13:20.226Z,4.30
2019-03-09T11:14:20.426Z,4.40
2019-03-09T11:15:20.219Z,4.60
2019-03-09T11:16:20.179Z,4.50
2019-03-09T11:17:20.237Z,4.40
2019-03-09T11:18:21.542Z,4.60
2019-03-09T11:19:20.666Z,4.60
2019-03-09T11:20:20.207Z,3.20
2019-03-09T11:21:20.760Z,5.10
2019-03-09T11:22:20.312Z,4.70
2019-03-09T11:23:20.680Z,4.30
2019-03-09T11:24:20.058Z,4.50
2019-03-09T11:25:20.838Z,4.80
2019-03-09T11:26:20.179Z,4.00
2019-03-09T11:27:20.101Z,5.00
2019-03-09T11:28:20.059Z,3.30
2019-03-09T11:29:20.094Z,3.70
2019-03-09T11:30:21.036Z,4.60
2019-03-09T11:31:20.083Z,5.20
2019-03-09T11:32:21.984Z,4.30
2019-03-09T11:33:20.254Z,4.60
2019-03-09T11:34:20.877Z,5.20
2019-03-09T11:35:19.940Z,3.80
2019-03-09T11:36:19.954Z,3.30
2019-03-09T11:37:21.953Z,3.70
2019-03-09T11:38:19.892Z,3.40
2019-03-09T11:39:19.927Z,3.60
2019-03-09T11:40:19.882Z,3.20
2019-03-09T11:41:19.902Z,2.90
2019-03-09T11:42:19.843Z,3.50
2019-03-09T11:43:19.884Z,2.40
2019-03-09T11:44:20.261Z,3.20
2019-03-09T11:45:20.904Z,3.30
2019-03-09T11:46:19.802Z,3.60
2019-03-09T11:47:20.538Z,2.80
2019-03-09T11:48:19.852Z,2.80
2019-03-09T11:49:19.804Z,2.70
2019-03-09T11:50:19.828Z,2.80
2019-03-09T11:51:20.212Z,2.50
2019-03-09T11:52:20.668Z,2.20
2019-03-09T11:53:19.814Z,2.10
2019-03-09T11:54:20.565Z,2.90
2019-03-09T11:55:20.448Z,2.70
2019-03-09T11:56:19.695Z,2.20
2019-03-09T11:57:19.686Z,2.40
2019-03-09T11:58:19.785Z,3.00
2019-03-09T11:59:19.818Z,1.90
2019-03-09T12:00:19.755Z,2.10
2019-03-09T12:01:19.771Z,2.60
2019-03-09T12:02:19.657Z,2.40
2019-03-09T12:03:19.636Z,1.80
2019-03-09T12:04:20.994Z,2.30
2019-03-09T12:05:19.882Z,1.90
2019-03-09T12:06:19.667Z,2.10
2019-03-09T12:07:19.740Z,1.60
2019-03-09T12:08:19.569Z,3.30
2019-03-09T12:09:19.563Z,2.10
2019-03-09T12:10:20.661Z,2.20
2019-03-09T12:11:20.046Z,2.10
2019-03-09T12:12:19.676Z,1.90
2019-03-09T12:13:19.920Z,2.10
2019-03-09T12:14:19.716Z,1.60
2019-03-09T12:15:19.631Z,2.10
2019-03-09T12:16:19.694Z,2.20
2019-03-09T12:17:19.592Z,2.00
2019-03-09T12:18:20.087Z,1.90
2019-03-09T12:19:21.032Z,1.80
2019-03-09T12:20:19.446Z,1.90
2019-03-09T12:21:19.427Z,1.50
2019-03-09T12:22:19.412Z,1.80
2019-03-09T12:23:19.550Z,1.70
2019-03-09T12:24:20.055Z,1.70
2019-03-09T12:25:20.116Z,1.70
2019-03-09T12:26:19.487Z,1.70
2019-03-09T12:27:19.462Z,1.90
2019-03-09T12:28:19.387Z,1.60
2019-03-09T12:29:19.534Z,1.30
2019-03-09T12:30:19.440Z,1.50
2019-03-09T12:31:19.398Z,2.00
2019-03-09T12:32:19.339Z,1.60
2019-03-09T12:33:19.403Z,1.90
2019-03-09T12:34:19.354Z,1.30
2019-03-09T12:35:19.397Z,1.10
2019-03-09T12:36:19.303Z,1.00
2019-03-09T12:37:19.890Z,1.70
2019-03-09T12:38:19.312Z,1.20
2019-03-09T12:39:19.338Z,1.40
2019-03-09T12:40:19.590Z,1.90
2019-03-09T12:41:19.443Z,1.60
2019-03-09T12:42:19.407Z,1.50
2019-03-09T12:43:19.333Z,1.40
2019-03-09T12:44:19.689Z,1.80
2019-03-09T12:45:19.250Z,1.20
2019-03-09T12:46:19.193Z,0.80
2019-03-09T12:47:19.197Z,1.20
2019-03-09T12:48:19.205Z,1.50
2019-03-09T12:49:20.898Z,1.90
2019-03-09T12:50:19.162Z,0.80
2019-03-09T12:51:19.188Z,1.10
2019-03-09T12:52:19.142Z,1.30
2019-03-09T12:53:20.320Z,0.80
2019-03-09T12:54:19.772Z,1.10
2019-03-09T12:55:19.276Z,1.10
2019-03-09T12:56:19.047Z,1.60
2019-03-09T12:57:19.423Z,1.10
2019-03-09T12:58:19.026Z,1.20
2019-03-09T12:59:19.584Z,1.50
2019-03-09T13:00:19.195Z,1.60
2019-03-09T13:01:21.939Z,1.60
2019-03-09T13:02:19.449Z,1.50
2019-03-09T13:03:19.046Z,1.60
2019-03-09T13:04:19.595Z,1.30
2019-03-09T13:05:18.970Z,1.30
2019-03-09T13:06:18.988Z,1.40
2019-03-09T13:07:19.147Z,1.00
2019-03-09T13:08:19.319Z,1.20
2019-03-09T13:09:19.344Z,1.30
2019-03-09T13:10:18.972Z,0.70
2019-03-09T13:11:18.902Z,1.10
2019-03-09T13:12:19.561Z,0.70
2019-03-09T13:13:19.079Z,1.20
2019-03-09T13:14:18.855Z,1.10
2019-03-09T13:15:19.130Z,2.00
2019-03-09T13:16:18.929Z,1.30
2019-03-09T13:17:18.833Z,1.40
2019-03-09T13:18:18.905Z,1.10
2019-03-09T13:19:19.557Z,1.10
2019-03-09T13:20:18.805Z,1.20